sensor_id;sensor_type;location;lat;lon;timestamp;temperature;humidity
18717;DHT22;9487;50.892;6.906;2023-02-28T00:00:01;1.80;52.70
18717;DHT22;9487;50.892;6.906;2023-02-28T00:02:33;1.70;55.30
18717;DHT22;9487;50.892;6.906;2023-02-28T00:05:00;1.70;55.70
18717;DHT22;9487;50.892;6.906;2023-02-28T00:07:29;1.60;56.50
18717;DHT22;9487;50.892;6.906;2023-02-28T00:09:56;1.60;59.10
18717;DHT22;9487;50.892;6.906;2023-02-28T00:12:23;1.50;59.10
18717;DHT22;9487;50.892;6.906;2023-02-28T00:14:51;1.60;59.70
18717;DHT22;9487;50.892;6.906;2023-02-28T00:17:19;1.50;60.00
18717;DHT22;9487;50.892;6.906;2023-02-28T00:19:46;1.50;61.70
18717;DHT22;9487;50.892;6.906;2023-02-28T00:22:14;1.50;63.00
18717;DHT22;9487;50.892;6.906;2023-02-28T00:24:41;1.50;59.70
18717;DHT22;9487;50.892;6.906;2023-02-28T00:27:08;1.40;60.80
18717;DHT22;9487;50.892;6.906;2023-02-28T00:29:35;1.40;62.70
18717;DHT22;9487;50.892;6.906;2023-02-28T00:32:05;1.30;64.10
18717;DHT22;9487;50.892;6.906;2023-02-28T00:34:32;1.40;64.30
18717;DHT22;9487;50.892;6.906;2023-02-28T00:37:03;1.40;60.60
18717;DHT22;9487;50.892;6.906;2023-02-28T00:39:30;1.40;62.50
18717;DHT22;9487;50.892;6.906;2023-02-28T00:41:57;1.40;60.00
18717;DHT22;9487;50.892;6.906;2023-02-28T00:44:24;1.40;61.40
18717;DHT22;9487;50.892;6.906;2023-02-28T00:46:51;1.50;59.90
18717;DHT22;9487;50.892;6.906;2023-02-28T00:49:20;1.50;60.90
18717;DHT22;9487;50.892;6.906;2023-02-28T00:51:47;1.50;58.90
18717;DHT22;9487;50.892;6.906;2023-02-28T00:54:15;1.50;61.10
18717;DHT22;9487;50.892;6.906;2023-02-28T00:56:42;1.50;59.10
18717;DHT22;9487;50.892;6.906;2023-02-28T00:59:09;1.40;59.70
18717;DHT22;9487;50.892;6.906;2023-02-28T01:01:36;1.30;62.20
18717;DHT22;9487;50.892;6.906;2023-02-28T01:04:03;1.40;61.10
18717;DHT22;9487;50.892;6.906;2023-02-28T01:06:32;1.40;60.80
18717;DHT22;9487;50.892;6.906;2023-02-28T01:08:59;1.30;61.80
18717;DHT22;9487;50.892;6.906;2023-02-28T01:11:26;1.30;68.00
18717;DHT22;9487;50.892;6.906;2023-02-28T01:13:53;1.30;62.40
18717;DHT22;9487;50.892;6.906;2023-02-28T01:16:20;1.20;64.30
18717;DHT22;9487;50.892;6.906;2023-02-28T01:18:46;1.20;64.00
18717;DHT22;9487;50.892;6.906;2023-02-28T01:21:15;1.20;64.20
18717;DHT22;9487;50.892;6.906;2023-02-28T01:23:44;1.20;65.40
18717;DHT22;9487;50.892;6.906;2023-02-28T01:26:14;1.10;66.10
18717;DHT22;9487;50.892;6.906;2023-02-28T01:28:41;1.20;66.50
18717;DHT22;9487;50.892;6.906;2023-02-28T01:31:08;1.20;64.20
18717;DHT22;9487;50.892;6.906;2023-02-28T01:33:35;1.30;64.50
18717;DHT22;9487;50.892;6.906;2023-02-28T01:36:04;1.30;63.90
18717;DHT22;9487;50.892;6.906;2023-02-28T01:38:32;1.20;64.80
18717;DHT22;9487;50.892;6.906;2023-02-28T01:41:00;1.20;65.10
18717;DHT22;9487;50.892;6.906;2023-02-28T01:43:52;1.20;65.70
18717;DHT22;9487;50.892;6.906;2023-02-28T01:46:15;1.10;68.40
18717;DHT22;9487;50.892;6.906;2023-02-28T01:48:46;1.30;63.70
18717;DHT22;9487;50.892;6.906;2023-02-28T01:51:18;1.20;64.30
18717;DHT22;9487;50.892;6.906;2023-02-28T01:53:49;1.20;64.30
18717;DHT22;9487;50.892;6.906;2023-02-28T01:56:23;1.10;65.80
18717;DHT22;9487;50.892;6.906;2023-02-28T01:58:51;1.10;66.90
18717;DHT22;9487;50.892;6.906;2023-02-28T02:01:19;1.10;64.70
18717;DHT22;9487;50.892;6.906;2023-02-28T02:03:48;1.10;65.60
18717;DHT22;9487;50.892;6.906;2023-02-28T02:06:20;1.20;62.70
18717;DHT22;9487;50.892;6.906;2023-02-28T02:08:47;1.10;63.10
18717;DHT22;9487;50.892;6.906;2023-02-28T02:11:19;1.20;63.20
18717;DHT22;9487;50.892;6.906;2023-02-28T02:13:59;1.20;60.60
18717;DHT22;9487;50.892;6.906;2023-02-28T02:16:38;1.20;62.70
18717;DHT22;9487;50.892;6.906;2023-02-28T02:19:20;1.10;61.20
18717;DHT22;9487;50.892;6.906;2023-02-28T02:22:20;1.20;60.50
18717;DHT22;9487;50.892;6.906;2023-02-28T02:25:17;1.30;58.80
18717;DHT22;9487;50.892;6.906;2023-02-28T02:27:58;1.30;57.80
18717;DHT22;9487;50.892;6.906;2023-02-28T02:34:19;1.10;59.20
18717;DHT22;9487;50.892;6.906;2023-02-28T02:36:52;0.90;65.60
18717;DHT22;9487;50.892;6.906;2023-02-28T02:39:25;0.80;68.20
18717;DHT22;9487;50.892;6.906;2023-02-28T02:41:58;0.70;67.70
18717;DHT22;9487;50.892;6.906;2023-02-28T02:44:31;0.70;67.00
18717;DHT22;9487;50.892;6.906;2023-02-28T02:47:03;0.80;66.10
18717;DHT22;9487;50.892;6.906;2023-02-28T02:49:36;0.90;63.70
18717;DHT22;9487;50.892;6.906;2023-02-28T02:52:07;1.00;59.60
18717;DHT22;9487;50.892;6.906;2023-02-28T02:54:36;1.10;56.30
18717;DHT22;9487;50.892;6.906;2023-02-28T02:57:06;1.20;55.30
18717;DHT22;9487;50.892;6.906;2023-02-28T02:59:35;1.10;54.10
18717;DHT22;9487;50.892;6.906;2023-02-28T03:02:06;1.00;52.90
18717;DHT22;9487;50.892;6.906;2023-02-28T03:04:40;0.90;53.90
18717;DHT22;9487;50.892;6.906;2023-02-28T03:07:08;0.80;54.10
18717;DHT22;9487;50.892;6.906;2023-02-28T03:09:35;0.70;55.00
18717;DHT22;9487;50.892;6.906;2023-02-28T03:12:04;0.70;55.10
18717;DHT22;9487;50.892;6.906;2023-02-28T03:14:42;0.70;54.20
18717;DHT22;9487;50.892;6.906;2023-02-28T03:17:24;0.70;54.90
18717;DHT22;9487;50.892;6.906;2023-02-28T03:20:05;0.60;54.00
18717;DHT22;9487;50.892;6.906;2023-02-28T03:22:50;0.70;53.60
18717;DHT22;9487;50.892;6.906;2023-02-28T03:25:22;0.70;52.30
18717;DHT22;9487;50.892;6.906;2023-02-28T03:28:00;0.60;51.50
18717;DHT22;9487;50.892;6.906;2023-02-28T03:30:35;0.60;51.20
18717;DHT22;9487;50.892;6.906;2023-02-28T03:33:06;0.60;51.10
18717;DHT22;9487;50.892;6.906;2023-02-28T03:35:39;0.60;49.90
18717;DHT22;9487;50.892;6.906;2023-02-28T03:38:10;0.60;46.80
18717;DHT22;9487;50.892;6.906;2023-02-28T03:40:42;0.60;45.80
18717;DHT22;9487;50.892;6.906;2023-02-28T03:43:13;0.60;47.30
18717;DHT22;9487;50.892;6.906;2023-02-28T03:45:43;0.60;45.00
18717;DHT22;9487;50.892;6.906;2023-02-28T03:48:13;0.50;41.00
18717;DHT22;9487;50.892;6.906;2023-02-28T03:50:44;0.60;41.60
18717;DHT22;9487;50.892;6.906;2023-02-28T03:53:14;0.60;40.70
18717;DHT22;9487;50.892;6.906;2023-02-28T03:55:44;0.50;39.00
18717;DHT22;9487;50.892;6.906;2023-02-28T03:58:16;0.50;40.00
18717;DHT22;9487;50.892;6.906;2023-02-28T04:00:48;0.50;41.50
18717;DHT22;9487;50.892;6.906;2023-02-28T04:03:16;0.40;40.20
18717;DHT22;9487;50.892;6.906;2023-02-28T04:05:50;0.40;39.90
18717;DHT22;9487;50.892;6.906;2023-02-28T04:08:17;0.50;35.40
18717;DHT22;9487;50.892;6.906;2023-02-28T04:10:49;0.50;34.80
18717;DHT22;9487;50.892;6.906;2023-02-28T04:13:17;0.50;33.00
18717;DHT22;9487;50.892;6.906;2023-02-28T04:15:43;0.50;33.50
18717;DHT22;9487;50.892;6.906;2023-02-28T04:18:10;0.60;34.00
18717;DHT22;9487;50.892;6.906;2023-02-28T04:20:37;0.60;30.20
18717;DHT22;9487;50.892;6.906;2023-02-28T04:23:05;0.50;31.10
18717;DHT22;9487;50.892;6.906;2023-02-28T04:25:32;0.60;31.30
18717;DHT22;9487;50.892;6.906;2023-02-28T04:27:58;0.60;34.00
18717;DHT22;9487;50.892;6.906;2023-02-28T04:30:25;0.60;36.00
18717;DHT22;9487;50.892;6.906;2023-02-28T04:32:52;0.60;32.50
18717;DHT22;9487;50.892;6.906;2023-02-28T04:35:19;0.60;34.80
18717;DHT22;9487;50.892;6.906;2023-02-28T04:37:45;0.70;36.00
18717;DHT22;9487;50.892;6.906;2023-02-28T04:40:14;0.70;37.90
18717;DHT22;9487;50.892;6.906;2023-02-28T04:42:41;0.60;38.10
18717;DHT22;9487;50.892;6.906;2023-02-28T04:45:20;0.50;44.80
18717;DHT22;9487;50.892;6.906;2023-02-28T04:47:46;0.50;46.80
18717;DHT22;9487;50.892;6.906;2023-02-28T04:50:13;0.50;46.80
18717;DHT22;9487;50.892;6.906;2023-02-28T04:52:40;0.50;44.80
18717;DHT22;9487;50.892;6.906;2023-02-28T04:55:07;0.40;46.90
18717;DHT22;9487;50.892;6.906;2023-02-28T04:57:35;0.40;47.60
18717;DHT22;9487;50.892;6.906;2023-02-28T05:00:03;0.40;48.20
18717;DHT22;9487;50.892;6.906;2023-02-28T05:02:37;0.30;49.50
18717;DHT22;9487;50.892;6.906;2023-02-28T05:05:05;0.30;51.80
18717;DHT22;9487;50.892;6.906;2023-02-28T05:07:31;0.20;53.90
18717;DHT22;9487;50.892;6.906;2023-02-28T05:09:58;0.20;55.40
18717;DHT22;9487;50.892;6.906;2023-02-28T05:12:25;0.20;54.10
18717;DHT22;9487;50.892;6.906;2023-02-28T05:14:53;0.20;53.50
18717;DHT22;9487;50.892;6.906;2023-02-28T05:17:20;0.20;54.20
18717;DHT22;9487;50.892;6.906;2023-02-28T05:19:46;0.20;53.70
18717;DHT22;9487;50.892;6.906;2023-02-28T05:22:14;0.20;54.70
18717;DHT22;9487;50.892;6.906;2023-02-28T05:24:42;0.30;54.90
18717;DHT22;9487;50.892;6.906;2023-02-28T05:27:09;0.20;52.70
18717;DHT22;9487;50.892;6.906;2023-02-28T05:29:36;0.20;53.40
18717;DHT22;9487;50.892;6.906;2023-02-28T05:32:09;0.30;51.20
18717;DHT22;9487;50.892;6.906;2023-02-28T05:34:36;0.40;49.70
18717;DHT22;9487;50.892;6.906;2023-02-28T05:37:04;0.50;47.60
18717;DHT22;9487;50.892;6.906;2023-02-28T05:39:31;0.30;47.00
18717;DHT22;9487;50.892;6.906;2023-02-28T05:41:58;0.30;47.90
18717;DHT22;9487;50.892;6.906;2023-02-28T05:44:25;0.20;47.50
18717;DHT22;9487;50.892;6.906;2023-02-28T05:46:51;0.30;46.90
18717;DHT22;9487;50.892;6.906;2023-02-28T05:49:20;0.40;46.60
18717;DHT22;9487;50.892;6.906;2023-02-28T05:51:46;0.30;43.70
18717;DHT22;9487;50.892;6.906;2023-02-28T05:54:13;0.40;42.20
18717;DHT22;9487;50.892;6.906;2023-02-28T05:56:40;0.40;42.80
18717;DHT22;9487;50.892;6.906;2023-02-28T05:59:09;0.40;40.20
18717;DHT22;9487;50.892;6.906;2023-02-28T06:01:37;0.50;39.50
18717;DHT22;9487;50.892;6.906;2023-02-28T06:04:06;0.50;37.40
18717;DHT22;9487;50.892;6.906;2023-02-28T06:06:35;0.60;37.00
18717;DHT22;9487;50.892;6.906;2023-02-28T06:09:03;0.70;31.60
18717;DHT22;9487;50.892;6.906;2023-02-28T06:11:30;0.60;32.10
18717;DHT22;9487;50.892;6.906;2023-02-28T06:13:58;0.50;30.30
18717;DHT22;9487;50.892;6.906;2023-02-28T06:16:26;0.30;33.40
18717;DHT22;9487;50.892;6.906;2023-02-28T06:18:53;0.40;31.40
18717;DHT22;9487;50.892;6.906;2023-02-28T06:21:21;0.50;31.20
18717;DHT22;9487;50.892;6.906;2023-02-28T06:23:50;0.50;30.00
18717;DHT22;9487;50.892;6.906;2023-02-28T06:26:17;0.50;28.70
18717;DHT22;9487;50.892;6.906;2023-02-28T06:28:43;0.40;27.90
18717;DHT22;9487;50.892;6.906;2023-02-28T06:31:12;0.40;29.70
18717;DHT22;9487;50.892;6.906;2023-02-28T06:33:39;0.40;30.00
18717;DHT22;9487;50.892;6.906;2023-02-28T06:36:08;0.50;31.50
18717;DHT22;9487;50.892;6.906;2023-02-28T06:38:35;0.50;27.90
18717;DHT22;9487;50.892;6.906;2023-02-28T06:41:04;0.50;26.40
18717;DHT22;9487;50.892;6.906;2023-02-28T06:43:34;0.50;25.70
18717;DHT22;9487;50.892;6.906;2023-02-28T06:46:02;0.50;28.40
18717;DHT22;9487;50.892;6.906;2023-02-28T06:48:29;0.50;25.70
18717;DHT22;9487;50.892;6.906;2023-02-28T06:51:02;0.60;24.30
18717;DHT22;9487;50.892;6.906;2023-02-28T06:53:29;0.60;24.30
18717;DHT22;9487;50.892;6.906;2023-02-28T06:55:56;0.60;21.40
18717;DHT22;9487;50.892;6.906;2023-02-28T06:58:24;0.60;22.70
18717;DHT22;9487;50.892;6.906;2023-02-28T07:00:52;0.60;24.50
18717;DHT22;9487;50.892;6.906;2023-02-28T07:03:19;0.70;24.00
18717;DHT22;9487;50.892;6.906;2023-02-28T07:05:46;0.70;21.00
18717;DHT22;9487;50.892;6.906;2023-02-28T07:08:13;0.80;18.10
18717;DHT22;9487;50.892;6.906;2023-02-28T07:10:40;0.70;17.90
18717;DHT22;9487;50.892;6.906;2023-02-28T07:13:07;0.80;16.40
18717;DHT22;9487;50.892;6.906;2023-02-28T07:15:37;0.70;15.60
18717;DHT22;9487;50.892;6.906;2023-02-28T07:18:04;0.70;14.20
18717;DHT22;9487;50.892;6.906;2023-02-28T07:20:31;0.80;10.90
18717;DHT22;9487;50.892;6.906;2023-02-28T07:22:57;0.80;9.70
18717;DHT22;9487;50.892;6.906;2023-02-28T07:25:26;0.90;8.30
18717;DHT22;9487;50.892;6.906;2023-02-28T07:27:53;1.00;4.20
18717;DHT22;9487;50.892;6.906;2023-02-28T07:30:21;1.00;4.80
18717;DHT22;9487;50.892;6.906;2023-02-28T07:32:49;1.00;4.60
18717;DHT22;9487;50.892;6.906;2023-02-28T07:35:16;1.10;1.00
18717;DHT22;9487;50.892;6.906;2023-02-28T07:37:42;1.10;1.00
18717;DHT22;9487;50.892;6.906;2023-02-28T07:40:11;1.20;1.00
18717;DHT22;9487;50.892;6.906;2023-02-28T07:42:38;1.20;1.00
18717;DHT22;9487;50.892;6.906;2023-02-28T07:45:07;1.20;1.00
18717;DHT22;9487;50.892;6.906;2023-02-28T07:47:37;1.40;1.00
18717;DHT22;9487;50.892;6.906;2023-02-28T07:50:06;1.40;1.00
18717;DHT22;9487;50.892;6.906;2023-02-28T07:52:33;1.60;1.00
18717;DHT22;9487;50.892;6.906;2023-02-28T07:54:59;1.60;1.00
18717;DHT22;9487;50.892;6.906;2023-02-28T07:57:26;1.60;1.00
18717;DHT22;9487;50.892;6.906;2023-02-28T07:59:53;1.80;1.00
18717;DHT22;9487;50.892;6.906;2023-02-28T08:02:20;2.00;1.00
18717;DHT22;9487;50.892;6.906;2023-02-28T08:04:47;1.80;1.00
18717;DHT22;9487;50.892;6.906;2023-02-28T08:07:16;2.00;1.00
18717;DHT22;9487;50.892;6.906;2023-02-28T08:09:43;2.00;1.00
18717;DHT22;9487;50.892;6.906;2023-02-28T08:12:11;2.00;1.00
18717;DHT22;9487;50.892;6.906;2023-02-28T08:14:38;2.30;1.00
18717;DHT22;9487;50.892;6.906;2023-02-28T08:17:06;2.40;1.00
18717;DHT22;9487;50.892;6.906;2023-02-28T08:19:33;2.20;1.00
18717;DHT22;9487;50.892;6.906;2023-02-28T08:22:00;2.10;1.00
18717;DHT22;9487;50.892;6.906;2023-02-28T08:24:28;2.30;1.00
18717;DHT22;9487;50.892;6.906;2023-02-28T08:26:55;2.20;1.00
18717;DHT22;9487;50.892;6.906;2023-02-28T08:29:22;2.40;1.00
18717;DHT22;9487;50.892;6.906;2023-02-28T08:31:49;2.70;1.00
18717;DHT22;9487;50.892;6.906;2023-02-28T08:34:16;2.70;1.00
18717;DHT22;9487;50.892;6.906;2023-02-28T08:36:44;2.60;1.00
18717;DHT22;9487;50.892;6.906;2023-02-28T08:39:11;2.50;1.00
18717;DHT22;9487;50.892;6.906;2023-02-28T08:41:39;2.60;1.00
18717;DHT22;9487;50.892;6.906;2023-02-28T08:44:06;2.80;1.00
18717;DHT22;9487;50.892;6.906;2023-02-28T08:46:33;2.90;1.00
18717;DHT22;9487;50.892;6.906;2023-02-28T08:49:00;2.90;99.90
18717;DHT22;9487;50.892;6.906;2023-02-28T08:51:28;2.90;99.90
18717;DHT22;9487;50.892;6.906;2023-02-28T08:53:58;3.20;99.90
18717;DHT22;9487;50.892;6.906;2023-02-28T08:56:26;3.30;99.90
18717;DHT22;9487;50.892;6.906;2023-02-28T08:58:55;3.30;1.00
18717;DHT22;9487;50.892;6.906;2023-02-28T09:01:24;3.20;1.00
18717;DHT22;9487;50.892;6.906;2023-02-28T09:03:52;3.50;1.00
18717;DHT22;9487;50.892;6.906;2023-02-28T09:06:20;3.60;1.00
18717;DHT22;9487;50.892;6.906;2023-02-28T09:08:47;3.40;1.00
18717;DHT22;9487;50.892;6.906;2023-02-28T09:11:15;3.50;1.00
18717;DHT22;9487;50.892;6.906;2023-02-28T09:13:42;3.80;1.00
18717;DHT22;9487;50.892;6.906;2023-02-28T09:16:12;3.70;99.90
18717;DHT22;9487;50.892;6.906;2023-02-28T09:18:40;3.60;99.90
18717;DHT22;9487;50.892;6.906;2023-02-28T09:21:09;3.90;1.00
18717;DHT22;9487;50.892;6.906;2023-02-28T09:23:37;4.40;1.00
18717;DHT22;9487;50.892;6.906;2023-02-28T09:26:04;4.90;1.00
18717;DHT22;9487;50.892;6.906;2023-02-28T09:28:31;5.40;1.00
18717;DHT22;9487;50.892;6.906;2023-02-28T09:30:58;5.40;1.00
18717;DHT22;9487;50.892;6.906;2023-02-28T09:33:26;4.90;99.90
18717;DHT22;9487;50.892;6.906;2023-02-28T09:35:58;4.70;42.90
18717;DHT22;9487;50.892;6.906;2023-02-28T09:38:26;4.70;99.90
18717;DHT22;9487;50.892;6.906;2023-02-28T09:40:55;4.80;99.90
18717;DHT22;9487;50.892;6.906;2023-02-28T09:43:25;4.30;1.00
18717;DHT22;9487;50.892;6.906;2023-02-28T09:45:56;4.20;31.30
18717;DHT22;9487;50.892;6.906;2023-02-28T09:48:31;4.50;34.40
18717;DHT22;9487;50.892;6.906;2023-02-28T09:51:03;4.10;1.00
18717;DHT22;9487;50.892;6.906;2023-02-28T09:53:34;3.80;1.00
18717;DHT22;9487;50.892;6.906;2023-02-28T09:56:07;3.90;99.90
18717;DHT22;9487;50.892;6.906;2023-02-28T09:58:39;4.10;99.90
18717;DHT22;9487;50.892;6.906;2023-02-28T10:01:17;4.50;99.90
18717;DHT22;9487;50.892;6.906;2023-02-28T10:03:54;4.80;22.50
18717;DHT22;9487;50.892;6.906;2023-02-28T10:06:27;5.00;1.00
18717;DHT22;9487;50.892;6.906;2023-02-28T10:09:01;4.80;1.00
18717;DHT22;9487;50.892;6.906;2023-02-28T10:11:29;4.80;1.00
18717;DHT22;9487;50.892;6.906;2023-02-28T10:14:01;4.50;1.00
18717;DHT22;9487;50.892;6.906;2023-02-28T10:16:33;4.20;1.00
18717;DHT22;9487;50.892;6.906;2023-02-28T10:19:05;4.30;1.00
18717;DHT22;9487;50.892;6.906;2023-02-28T10:21:38;4.50;1.00
18717;DHT22;9487;50.892;6.906;2023-02-28T10:24:16;4.70;1.00
18717;DHT22;9487;50.892;6.906;2023-02-28T10:26:48;4.50;1.00
18717;DHT22;9487;50.892;6.906;2023-02-28T10:29:15;4.20;1.00
18717;DHT22;9487;50.892;6.906;2023-02-28T10:31:42;4.40;99.90
18717;DHT22;9487;50.892;6.906;2023-02-28T10:34:12;4.50;99.90
18717;DHT22;9487;50.892;6.906;2023-02-28T10:36:40;4.40;16.70
18717;DHT22;9487;50.892;6.906;2023-02-28T10:39:33;4.40;99.90
18717;DHT22;9487;50.892;6.906;2023-02-28T10:42:00;5.10;1.00
18717;DHT22;9487;50.892;6.906;2023-02-28T10:44:27;5.30;99.90
18717;DHT22;9487;50.892;6.906;2023-02-28T10:46:54;5.20;1.00
18717;DHT22;9487;50.892;6.906;2023-02-28T10:49:25;4.70;1.00
18717;DHT22;9487;50.892;6.906;2023-02-28T10:51:55;4.50;1.00
18717;DHT22;9487;50.892;6.906;2023-02-28T10:54:26;4.60;1.00
18717;DHT22;9487;50.892;6.906;2023-02-28T10:57:12;4.60;1.00
18717;DHT22;9487;50.892;6.906;2023-02-28T10:59:41;4.50;1.00
18717;DHT22;9487;50.892;6.906;2023-02-28T11:02:29;4.50;10.70
18717;DHT22;9487;50.892;6.906;2023-02-28T11:04:58;4.70;1.00
18717;DHT22;9487;50.892;6.906;2023-02-28T11:07:26;4.90;22.70
18717;DHT22;9487;50.892;6.906;2023-02-28T11:09:54;4.70;1.00
18717;DHT22;9487;50.892;6.906;2023-02-28T11:12:24;4.50;1.00
18717;DHT22;9487;50.892;6.906;2023-02-28T11:14:54;4.60;1.20
18717;DHT22;9487;50.892;6.906;2023-02-28T11:17:23;4.80;42.60
18717;DHT22;9487;50.892;6.906;2023-02-28T11:19:53;4.80;1.00
18717;DHT22;9487;50.892;6.906;2023-02-28T11:22:24;5.20;1.00
18717;DHT22;9487;50.892;6.906;2023-02-28T11:24:55;4.90;1.00
18717;DHT22;9487;50.892;6.906;2023-02-28T11:27:26;5.10;1.00
18717;DHT22;9487;50.892;6.906;2023-02-28T11:29:53;4.90;1.00
18717;DHT22;9487;50.892;6.906;2023-02-28T11:32:22;4.70;1.00
18717;DHT22;9487;50.892;6.906;2023-02-28T11:35:00;4.60;1.00
18717;DHT22;9487;50.892;6.906;2023-02-28T11:37:31;4.70;1.00
18717;DHT22;9487;50.892;6.906;2023-02-28T11:40:00;4.80;1.00
18717;DHT22;9487;50.892;6.906;2023-02-28T11:42:47;5.00;1.00
18717;DHT22;9487;50.892;6.906;2023-02-28T11:45:29;5.40;1.00
18717;DHT22;9487;50.892;6.906;2023-02-28T11:48:10;5.60;1.00
18717;DHT22;9487;50.892;6.906;2023-02-28T11:50:45;5.80;1.00
18717;DHT22;9487;50.892;6.906;2023-02-28T11:53:41;6.10;1.00
18717;DHT22;9487;50.892;6.906;2023-02-28T11:56:14;5.80;1.00
18717;DHT22;9487;50.892;6.906;2023-02-28T11:58:50;5.50;1.00
18717;DHT22;9487;50.892;6.906;2023-02-28T12:01:28;5.00;1.00
18717;DHT22;9487;50.892;6.906;2023-02-28T12:04:09;5.20;1.00
18717;DHT22;9487;50.892;6.906;2023-02-28T12:06:59;5.60;1.00
18717;DHT22;9487;50.892;6.906;2023-02-28T12:09:46;5.80;1.00
18717;DHT22;9487;50.892;6.906;2023-02-28T12:12:27;5.90;1.00
18717;DHT22;9487;50.892;6.906;2023-02-28T12:15:13;6.00;1.00
18717;DHT22;9487;50.892;6.906;2023-02-28T12:17:59;6.20;1.00
18717;DHT22;9487;50.892;6.906;2023-02-28T12:20:36;5.40;1.00
18717;DHT22;9487;50.892;6.906;2023-02-28T12:26:05;5.50;1.00
18717;DHT22;9487;50.892;6.906;2023-02-28T12:28:39;5.60;1.00
18717;DHT22;9487;50.892;6.906;2023-02-28T12:31:11;5.90;1.00
18717;DHT22;9487;50.892;6.906;2023-02-28T12:33:43;6.30;1.00
18717;DHT22;9487;50.892;6.906;2023-02-28T12:36:14;6.40;1.00
18717;DHT22;9487;50.892;6.906;2023-02-28T12:38:47;6.30;1.00
18717;DHT22;9487;50.892;6.906;2023-02-28T12:41:17;6.30;99.90
18717;DHT22;9487;50.892;6.906;2023-02-28T12:43:48;6.30;99.90
18717;DHT22;9487;50.892;6.906;2023-02-28T12:46:19;6.40;99.90
18717;DHT22;9487;50.892;6.906;2023-02-28T12:48:50;6.40;99.90
18717;DHT22;9487;50.892;6.906;2023-02-28T12:51:19;6.50;1.00
18717;DHT22;9487;50.892;6.906;2023-02-28T12:53:54;6.40;99.90
18717;DHT22;9487;50.892;6.906;2023-02-28T12:56:33;6.30;99.90
18717;DHT22;9487;50.892;6.906;2023-02-28T12:59:05;6.30;99.90
18717;DHT22;9487;50.892;6.906;2023-02-28T13:01:57;6.50;1.00
18717;DHT22;9487;50.892;6.906;2023-02-28T13:07:43;6.80;1.00
18717;DHT22;9487;50.892;6.906;2023-02-28T13:10:16;6.70;1.00
18717;DHT22;9487;50.892;6.906;2023-02-28T13:12:49;6.20;1.00
18717;DHT22;9487;50.892;6.906;2023-02-28T13:15:19;6.50;1.00
18717;DHT22;9487;50.892;6.906;2023-02-28T13:17:51;6.30;1.00
18717;DHT22;9487;50.892;6.906;2023-02-28T13:20:20;6.10;1.00
18717;DHT22;9487;50.892;6.906;2023-02-28T13:22:48;6.20;1.00
18717;DHT22;9487;50.892;6.906;2023-02-28T13:31:27;5.80;1.00
18717;DHT22;9487;50.892;6.906;2023-02-28T13:34:15;5.80;1.00
18717;DHT22;9487;50.892;6.906;2023-02-28T13:36:42;5.60;1.00
18717;DHT22;9487;50.892;6.906;2023-02-28T13:42:32;6.20;1.00
18717;DHT22;9487;50.892;6.906;2023-02-28T13:45:24;6.20;1.00
18717;DHT22;9487;50.892;6.906;2023-02-28T13:47:55;6.00;1.00
18717;DHT22;9487;50.892;6.906;2023-02-28T13:50:27;5.90;1.00
18717;DHT22;9487;50.892;6.906;2023-02-28T13:55:49;6.20;1.00
18717;DHT22;9487;50.892;6.906;2023-02-28T13:58:32;6.30;1.00
18717;DHT22;9487;50.892;6.906;2023-02-28T14:01:13;6.30;1.00
18717;DHT22;9487;50.892;6.906;2023-02-28T14:06:36;6.30;1.00
18717;DHT22;9487;50.892;6.906;2023-02-28T14:09:16;6.40;1.00
18717;DHT22;9487;50.892;6.906;2023-02-28T14:11:45;6.20;1.00
18717;DHT22;9487;50.892;6.906;2023-02-28T14:14:54;6.10;1.00
18717;DHT22;9487;50.892;6.906;2023-02-28T14:17:22;6.10;1.00
18717;DHT22;9487;50.892;6.906;2023-02-28T14:19:52;6.30;1.00
18717;DHT22;9487;50.892;6.906;2023-02-28T14:22:43;6.20;1.00
18717;DHT22;9487;50.892;6.906;2023-02-28T14:25:22;6.20;1.00
18717;DHT22;9487;50.892;6.906;2023-02-28T14:27:55;6.40;1.00
18717;DHT22;9487;50.892;6.906;2023-02-28T14:30:51;6.50;1.00
18717;DHT22;9487;50.892;6.906;2023-02-28T14:33:27;6.20;1.00
18717;DHT22;9487;50.892;6.906;2023-02-28T14:36:08;6.10;1.00
18717;DHT22;9487;50.892;6.906;2023-02-28T14:38:40;6.40;1.00
18717;DHT22;9487;50.892;6.906;2023-02-28T14:41:16;6.50;1.00
18717;DHT22;9487;50.892;6.906;2023-02-28T14:43:49;6.70;1.00
18717;DHT22;9487;50.892;6.906;2023-02-28T14:46:17;6.90;1.00
18717;DHT22;9487;50.892;6.906;2023-02-28T14:48:45;7.10;1.00
18717;DHT22;9487;50.892;6.906;2023-02-28T14:51:19;7.20;1.00
18717;DHT22;9487;50.892;6.906;2023-02-28T14:53:49;7.00;1.00
18717;DHT22;9487;50.892;6.906;2023-02-28T14:56:23;6.60;1.00
18717;DHT22;9487;50.892;6.906;2023-02-28T14:58:52;6.70;1.00
18717;DHT22;9487;50.892;6.906;2023-02-28T15:01:20;6.60;1.00
18717;DHT22;9487;50.892;6.906;2023-02-28T15:03:47;6.70;1.00
18717;DHT22;9487;50.892;6.906;2023-02-28T15:06:17;6.50;1.00
18717;DHT22;9487;50.892;6.906;2023-02-28T15:08:44;6.40;1.00
18717;DHT22;9487;50.892;6.906;2023-02-28T15:11:14;6.40;1.00
18717;DHT22;9487;50.892;6.906;2023-02-28T15:13:46;6.60;1.00
18717;DHT22;9487;50.892;6.906;2023-02-28T15:16:16;6.70;1.00
18717;DHT22;9487;50.892;6.906;2023-02-28T15:18:47;6.70;1.00
18717;DHT22;9487;50.892;6.906;2023-02-28T15:21:18;6.60;1.00
18717;DHT22;9487;50.892;6.906;2023-02-28T15:23:49;6.70;1.00
18717;DHT22;9487;50.892;6.906;2023-02-28T15:26:20;6.90;1.00
18717;DHT22;9487;50.892;6.906;2023-02-28T15:28:49;7.20;1.00
18717;DHT22;9487;50.892;6.906;2023-02-28T15:31:21;7.40;1.00
18717;DHT22;9487;50.892;6.906;2023-02-28T15:33:53;7.60;1.00
18717;DHT22;9487;50.892;6.906;2023-02-28T15:36:28;7.60;1.00
18717;DHT22;9487;50.892;6.906;2023-02-28T15:38:55;7.40;1.00
18717;DHT22;9487;50.892;6.906;2023-02-28T15:41:25;7.00;99.90
18717;DHT22;9487;50.892;6.906;2023-02-28T15:44:14;7.20;1.00
18717;DHT22;9487;50.892;6.906;2023-02-28T15:46:43;7.00;99.90
18717;DHT22;9487;50.892;6.906;2023-02-28T15:49:18;6.80;99.90
18717;DHT22;9487;50.892;6.906;2023-02-28T15:51:49;6.70;99.90
18717;DHT22;9487;50.892;6.906;2023-02-28T15:54:20;6.80;1.00
18717;DHT22;9487;50.892;6.906;2023-02-28T15:56:51;7.00;1.00
18717;DHT22;9487;50.892;6.906;2023-02-28T15:59:22;7.10;1.00
18717;DHT22;9487;50.892;6.906;2023-02-28T16:02:03;7.10;1.00
18717;DHT22;9487;50.892;6.906;2023-02-28T16:04:58;6.80;1.00
18717;DHT22;9487;50.892;6.906;2023-02-28T16:07:27;7.00;1.00
18717;DHT22;9487;50.892;6.906;2023-02-28T16:09:54;7.40;1.00
18717;DHT22;9487;50.892;6.906;2023-02-28T16:12:25;7.70;1.00
18717;DHT22;9487;50.892;6.906;2023-02-28T16:14:53;8.00;1.00
18717;DHT22;9487;50.892;6.906;2023-02-28T16:17:22;8.10;1.00
18717;DHT22;9487;50.892;6.906;2023-02-28T16:19:49;8.20;1.00
18717;DHT22;9487;50.892;6.906;2023-02-28T16:22:16;8.20;99.90
18717;DHT22;9487;50.892;6.906;2023-02-28T16:24:44;8.40;99.90
18717;DHT22;9487;50.892;6.906;2023-02-28T16:27:17;8.60;99.90
18717;DHT22;9487;50.892;6.906;2023-02-28T16:29:45;8.60;99.90
18717;DHT22;9487;50.892;6.906;2023-02-28T16:32:14;8.40;99.90
18717;DHT22;9487;50.892;6.906;2023-02-28T16:34:41;8.20;99.90
18717;DHT22;9487;50.892;6.906;2023-02-28T16:37:12;7.60;99.90
18717;DHT22;9487;50.892;6.906;2023-02-28T16:39:39;7.40;1.00
18717;DHT22;9487;50.892;6.906;2023-02-28T16:42:10;7.50;99.90
18717;DHT22;9487;50.892;6.906;2023-02-28T16:44:38;7.70;1.00
18717;DHT22;9487;50.892;6.906;2023-02-28T16:47:05;8.50;1.00
18717;DHT22;9487;50.892;6.906;2023-02-28T16:49:31;8.20;99.90
18717;DHT22;9487;50.892;6.906;2023-02-28T16:51:58;8.00;99.90
18717;DHT22;9487;50.892;6.906;2023-02-28T16:54:25;7.80;99.90
18717;DHT22;9487;50.892;6.906;2023-02-28T16:56:52;7.70;99.90